sensor_id;sensor_type;location;lat;lon;timestamp;P1;durP1;ratioP1;P2;durP2;ratioP2
11042;SDS011;5574;48.786;10.120;2023-07-29T00:00:08;2.00;;;1.73;;
11042;SDS011;5574;48.786;10.120;2023-07-29T00:02:36;1.70;;;1.60;;
11042;SDS011;5574;48.786;10.120;2023-07-29T00:05:03;1.77;;;1.67;;
11042;SDS011;5574;48.786;10.120;2023-07-29T00:07:30;1.80;;;1.70;;
11042;SDS011;5574;48.786;10.120;2023-07-29T00:09:57;2.97;;;1.70;;
11042;SDS011;5574;48.786;10.120;2023-07-29T00:12:24;2.03;;;1.73;;
11042;SDS011;5574;48.786;10.120;2023-07-29T00:14:51;1.70;;;1.60;;
11042;SDS011;5574;48.786;10.120;2023-07-29T00:17:17;1.80;;;1.58;;
11042;SDS011;5574;48.786;10.120;2023-07-29T00:19:45;1.77;;;1.67;;
11042;SDS011;5574;48.786;10.120;2023-07-29T00:22:12;3.17;;;1.65;;
11042;SDS011;5574;48.786;10.120;2023-07-29T00:24:39;2.45;;;1.60;;
11042;SDS011;5574;48.786;10.120;2023-07-29T00:27:07;2.30;;;2.10;;
11042;SDS011;5574;48.786;10.120;2023-07-29T00:29:34;1.80;;;1.70;;
11042;SDS011;5574;48.786;10.120;2023-07-29T00:32:00;2.13;;;1.88;;
11042;SDS011;5574;48.786;10.120;2023-07-29T00:34:27;2.70;;;1.80;;
11042;SDS011;5574;48.786;10.120;2023-07-29T00:36:55;1.95;;;1.85;;
11042;SDS011;5574;48.786;10.120;2023-07-29T00:39:22;2.10;;;1.98;;
11042;SDS011;5574;48.786;10.120;2023-07-29T00:41:49;2.10;;;1.98;;
11042;SDS011;5574;48.786;10.120;2023-07-29T00:44:17;2.40;;;1.80;;
11042;SDS011;5574;48.786;10.120;2023-07-29T00:46:44;2.55;;;1.90;;
11042;SDS011;5574;48.786;10.120;2023-07-29T00:49:12;2.65;;;2.20;;
11042;SDS011;5574;48.786;10.120;2023-07-29T00:51:38;4.55;;;2.40;;
11042;SDS011;5574;48.786;10.120;2023-07-29T00:54:05;2.60;;;2.40;;
11042;SDS011;5574;48.786;10.120;2023-07-29T00:56:32;2.60;;;2.35;;
11042;SDS011;5574;48.786;10.120;2023-07-29T00:58:59;2.00;;;1.90;;
11042;SDS011;5574;48.786;10.120;2023-07-29T01:01:28;4.57;;;2.13;;
11042;SDS011;5574;48.786;10.120;2023-07-29T01:03:55;2.45;;;2.22;;
11042;SDS011;5574;48.786;10.120;2023-07-29T01:06:23;1.83;;;1.70;;
11042;SDS011;5574;48.786;10.120;2023-07-29T01:08:56;2.28;;;1.30;;
11042;SDS011;5574;48.786;10.120;2023-07-29T01:11:32;2.03;;;1.30;;
11042;SDS011;5574;48.786;10.120;2023-07-29T01:14:05;1.27;;;1.20;;
11042;SDS011;5574;48.786;10.120;2023-07-29T01:16:48;2.50;;;1.45;;
11042;SDS011;5574;48.786;10.120;2023-07-29T01:19:23;1.50;;;1.40;;
11042;SDS011;5574;48.786;10.120;2023-07-29T01:22:01;2.10;;;1.52;;
11042;SDS011;5574;48.786;10.120;2023-07-29T01:24:30;2.40;;;1.73;;
11042;SDS011;5574;48.786;10.120;2023-07-29T01:26:56;3.38;;;2.22;;
11042;SDS011;5574;48.786;10.120;2023-07-29T01:29:23;3.28;;;1.70;;
11042;SDS011;5574;48.786;10.120;2023-07-29T01:31:50;1.60;;;1.50;;
11042;SDS011;5574;48.786;10.120;2023-07-29T01:34:23;1.80;;;1.70;;
11042;SDS011;5574;48.786;10.120;2023-07-29T01:36:55;1.65;;;1.55;;
11042;SDS011;5574;48.786;10.120;2023-07-29T01:39:27;1.25;;;1.10;;
11042;SDS011;5574;48.786;10.120;2023-07-29T01:41:58;1.42;;;1.20;;
11042;SDS011;5574;48.786;10.120;2023-07-29T01:44:25;1.67;;;1.52;;
11042;SDS011;5574;48.786;10.120;2023-07-29T01:46:54;1.60;;;1.50;;
11042;SDS011;5574;48.786;10.120;2023-07-29T01:49:21;1.65;;;1.55;;
11042;SDS011;5574;48.786;10.120;2023-07-29T01:51:48;2.83;;;1.52;;
11042;SDS011;5574;48.786;10.120;2023-07-29T01:54:14;1.98;;;1.20;;
11042;SDS011;5574;48.786;10.120;2023-07-29T01:56:42;2.58;;;1.20;;
11042;SDS011;5574;48.786;10.120;2023-07-29T01:59:09;1.77;;;1.38;;
11042;SDS011;5574;48.786;10.120;2023-07-29T02:01:36;2.65;;;1.30;;
11042;SDS011;5574;48.786;10.120;2023-07-29T02:04:03;2.42;;;1.48;;
11042;SDS011;5574;48.786;10.120;2023-07-29T02:06:30;1.40;;;1.30;;
11042;SDS011;5574;48.786;10.120;2023-07-29T02:08:56;1.70;;;1.60;;
11042;SDS011;5574;48.786;10.120;2023-07-29T02:11:23;3.15;;;1.60;;
11042;SDS011;5574;48.786;10.120;2023-07-29T02:13:53;1.88;;;1.40;;
11042;SDS011;5574;48.786;10.120;2023-07-29T02:16:21;2.05;;;1.55;;
11042;SDS011;5574;48.786;10.120;2023-07-29T02:18:48;4.65;;;2.00;;
11042;SDS011;5574;48.786;10.120;2023-07-29T02:21:15;1.75;;;1.65;;
11042;SDS011;5574;48.786;10.120;2023-07-29T02:23:42;1.58;;;1.48;;
11042;SDS011;5574;48.786;10.120;2023-07-29T02:26:08;1.70;;;1.60;;
11042;SDS011;5574;48.786;10.120;2023-07-29T02:28:35;1.88;;;1.60;;
11042;SDS011;5574;48.786;10.120;2023-07-29T02:31:16;1.45;;;1.35;;
11042;SDS011;5574;48.786;10.120;2023-07-29T02:33:46;1.42;;;1.30;;
11042;SDS011;5574;48.786;10.120;2023-07-29T02:36:13;3.28;;;1.40;;
11042;SDS011;5574;48.786;10.120;2023-07-29T02:38:40;2.05;;;1.30;;
11042;SDS011;5574;48.786;10.120;2023-07-29T02:41:07;1.60;;;1.50;;
11042;SDS011;5574;48.786;10.120;2023-07-29T02:43:34;1.40;;;1.30;;
11042;SDS011;5574;48.786;10.120;2023-07-29T02:46:01;2.85;;;1.23;;
11042;SDS011;5574;48.786;10.120;2023-07-29T02:48:29;1.42;;;1.33;;
11042;SDS011;5574;48.786;10.120;2023-07-29T02:50:56;1.40;;;1.30;;
11042;SDS011;5574;48.786;10.120;2023-07-29T02:53:23;1.45;;;1.35;;
11042;SDS011;5574;48.786;10.120;2023-07-29T02:55:50;2.05;;;1.20;;
11042;SDS011;5574;48.786;10.120;2023-07-29T02:58:17;1.70;;;1.60;;
11042;SDS011;5574;48.786;10.120;2023-07-29T03:00:44;2.03;;;1.40;;
11042;SDS011;5574;48.786;10.120;2023-07-29T03:03:12;3.40;;;1.65;;
11042;SDS011;5574;48.786;10.120;2023-07-29T03:05:40;4.50;;;1.50;;
11042;SDS011;5574;48.786;10.120;2023-07-29T03:08:07;2.83;;;1.55;;
11042;SDS011;5574;48.786;10.120;2023-07-29T03:10:34;3.15;;;1.77;;
11042;SDS011;5574;48.786;10.120;2023-07-29T03:13:01;2.25;;;1.73;;
11042;SDS011;5574;48.786;10.120;2023-07-29T03:15:28;2.40;;;1.70;;
11042;SDS011;5574;48.786;10.120;2023-07-29T03:17:54;1.98;;;1.70;;
11042;SDS011;5574;48.786;10.120;2023-07-29T03:20:21;2.33;;;1.75;;
11042;SDS011;5574;48.786;10.120;2023-07-29T03:22:49;2.17;;;1.60;;
11042;SDS011;5574;48.786;10.120;2023-07-29T03:25:16;1.50;;;1.33;;
11042;SDS011;5574;48.786;10.120;2023-07-29T03:27:43;2.00;;;1.70;;
11042;SDS011;5574;48.786;10.120;2023-07-29T03:30:10;2.65;;;1.80;;
11042;SDS011;5574;48.786;10.120;2023-07-29T03:32:39;1.98;;;1.60;;
11042;SDS011;5574;48.786;10.120;2023-07-29T03:35:09;2.88;;;1.60;;
11042;SDS011;5574;48.786;10.120;2023-07-29T03:37:35;3.03;;;1.70;;
11042;SDS011;5574;48.786;10.120;2023-07-29T03:40:04;2.00;;;1.80;;
11042;SDS011;5574;48.786;10.120;2023-07-29T03:42:32;1.70;;;1.60;;
11042;SDS011;5574;48.786;10.120;2023-07-29T03:44:58;1.85;;;1.75;;
11042;SDS011;5574;48.786;10.120;2023-07-29T03:47:25;2.17;;;1.83;;
11042;SDS011;5574;48.786;10.120;2023-07-29T03:49:52;2.92;;;1.73;;
11042;SDS011;5574;48.786;10.120;2023-07-29T03:52:19;2.63;;;2.10;;
11042;SDS011;5574;48.786;10.120;2023-07-29T03:54:46;4.38;;;1.95;;
11042;SDS011;5574;48.786;10.120;2023-07-29T03:57:14;5.25;;;2.22;;
11042;SDS011;5574;48.786;10.120;2023-07-29T03:59:40;2.95;;;2.30;;
11042;SDS011;5574;48.786;10.120;2023-07-29T04:02:07;2.00;;;1.90;;
11042;SDS011;5574;48.786;10.120;2023-07-29T04:04:34;2.55;;;1.60;;
11042;SDS011;5574;48.786;10.120;2023-07-29T04:07:01;3.20;;;1.75;;
11042;SDS011;5574;48.786;10.120;2023-07-29T04:09:27;1.95;;;1.60;;
11042;SDS011;5574;48.786;10.120;2023-07-29T04:11:54;3.00;;;1.80;;
11042;SDS011;5574;48.786;10.120;2023-07-29T04:14:23;2.45;;;1.98;;
11042;SDS011;5574;48.786;10.120;2023-07-29T04:16:49;2.50;;;2.10;;
11042;SDS011;5574;48.786;10.120;2023-07-29T04:19:16;2.60;;;2.40;;
11042;SDS011;5574;48.786;10.120;2023-07-29T04:21:42;3.20;;;2.33;;
11042;SDS011;5574;48.786;10.120;2023-07-29T04:24:09;3.45;;;2.33;;
11042;SDS011;5574;48.786;10.120;2023-07-29T04:26:36;2.42;;;2.22;;
11042;SDS011;5574;48.786;10.120;2023-07-29T04:29:04;2.63;;;2.17;;
11042;SDS011;5574;48.786;10.120;2023-07-29T04:31:32;2.75;;;2.35;;
11042;SDS011;5574;48.786;10.120;2023-07-29T04:33:58;2.45;;;2.30;;
11042;SDS011;5574;48.786;10.120;2023-07-29T04:36:25;4.32;;;2.35;;
11042;SDS011;5574;48.786;10.120;2023-07-29T04:38:52;2.70;;;2.33;;
11042;SDS011;5574;48.786;10.120;2023-07-29T04:41:18;3.40;;;2.65;;
11042;SDS011;5574;48.786;10.120;2023-07-29T04:43:45;3.33;;;2.58;;
11042;SDS011;5574;48.786;10.120;2023-07-29T04:46:12;2.50;;;2.30;;
11042;SDS011;5574;48.786;10.120;2023-07-29T04:48:40;2.70;;;2.50;;
11042;SDS011;5574;48.786;10.120;2023-07-29T04:51:06;3.25;;;2.40;;
11042;SDS011;5574;48.786;10.120;2023-07-29T04:53:33;3.15;;;2.50;;
11042;SDS011;5574;48.786;10.120;2023-07-29T04:56:01;2.95;;;2.60;;
11042;SDS011;5574;48.786;10.120;2023-07-29T04:58:28;3.00;;;2.80;;
11042;SDS011;5574;48.786;10.120;2023-07-29T05:00:55;3.95;;;2.63;;
11042;SDS011;5574;48.786;10.120;2023-07-29T05:03:21;3.15;;;2.50;;
11042;SDS011;5574;48.786;10.120;2023-07-29T05:05:49;5.03;;;2.70;;
11042;SDS011;5574;48.786;10.120;2023-07-29T05:08:18;4.65;;;2.80;;
11042;SDS011;5574;48.786;10.120;2023-07-29T05:10:48;3.38;;;2.75;;
11042;SDS011;5574;48.786;10.120;2023-07-29T05:13:15;2.83;;;2.60;;
11042;SDS011;5574;48.786;10.120;2023-07-29T05:15:42;2.55;;;2.35;;
11042;SDS011;5574;48.786;10.120;2023-07-29T05:18:09;3.78;;;2.35;;
11042;SDS011;5574;48.786;10.120;2023-07-29T05:20:36;3.25;;;2.58;;
11042;SDS011;5574;48.786;10.120;2023-07-29T05:23:04;3.72;;;2.60;;
11042;SDS011;5574;48.786;10.120;2023-07-29T05:25:31;3.67;;;2.80;;
11042;SDS011;5574;48.786;10.120;2023-07-29T05:27:59;2.40;;;2.20;;
11042;SDS011;5574;48.786;10.120;2023-07-29T05:30:26;2.08;;;1.98;;
11042;SDS011;5574;48.786;10.120;2023-07-29T05:32:55;2.75;;;2.33;;
11042;SDS011;5574;48.786;10.120;2023-07-29T05:35:22;3.92;;;2.60;;
11042;SDS011;5574;48.786;10.120;2023-07-29T05:37:49;3.83;;;2.88;;
11042;SDS011;5574;48.786;10.120;2023-07-29T05:40:17;2.58;;;2.38;;
11042;SDS011;5574;48.786;10.120;2023-07-29T05:42:44;2.92;;;2.53;;
11042;SDS011;5574;48.786;10.120;2023-07-29T05:45:11;4.40;;;2.55;;
11042;SDS011;5574;48.786;10.120;2023-07-29T05:47:38;4.05;;;2.58;;
11042;SDS011;5574;48.786;10.120;2023-07-29T05:50:05;3.85;;;2.67;;
11042;SDS011;5574;48.786;10.120;2023-07-29T05:52:32;5.00;;;2.60;;
11042;SDS011;5574;48.786;10.120;2023-07-29T05:54:59;12.43;;;4.53;;
11042;SDS011;5574;48.786;10.120;2023-07-29T05:57:27;7.40;;;3.75;;
11042;SDS011;5574;48.786;10.120;2023-07-29T05:59:54;5.95;;;3.08;;
11042;SDS011;5574;48.786;10.120;2023-07-29T06:02:21;5.75;;;3.08;;
11042;SDS011;5574;48.786;10.120;2023-07-29T06:04:48;4.90;;;3.30;;
11042;SDS011;5574;48.786;10.120;2023-07-29T06:07:14;4.65;;;3.13;;
11042;SDS011;5574;48.786;10.120;2023-07-29T06:09:41;5.40;;;3.53;;
11042;SDS011;5574;48.786;10.120;2023-07-29T06:12:08;8.93;;;3.67;;
11042;SDS011;5574;48.786;10.120;2023-07-29T06:14:36;5.45;;;3.40;;
11042;SDS011;5574;48.786;10.120;2023-07-29T06:17:03;5.97;;;3.40;;
11042;SDS011;5574;48.786;10.120;2023-07-29T06:19:31;5.70;;;3.45;;
11042;SDS011;5574;48.786;10.120;2023-07-29T06:21:58;4.82;;;3.10;;
11042;SDS011;5574;48.786;10.120;2023-07-29T06:24:26;6.18;;;3.97;;
11042;SDS011;5574;48.786;10.120;2023-07-29T06:26:53;4.90;;;3.83;;
11042;SDS011;5574;48.786;10.120;2023-07-29T06:29:19;6.15;;;3.60;;
11042;SDS011;5574;48.786;10.120;2023-07-29T06:31:47;5.55;;;4.20;;
11042;SDS011;5574;48.786;10.120;2023-07-29T06:34:16;7.28;;;3.67;;
11042;SDS011;5574;48.786;10.120;2023-07-29T06:36:43;5.30;;;3.72;;
11042;SDS011;5574;48.786;10.120;2023-07-29T06:39:10;6.88;;;3.78;;
11042;SDS011;5574;48.786;10.120;2023-07-29T06:41:37;4.93;;;3.67;;
11042;SDS011;5574;48.786;10.120;2023-07-29T06:44:03;4.13;;;3.47;;
11042;SDS011;5574;48.786;10.120;2023-07-29T06:46:30;5.22;;;4.22;;
11042;SDS011;5574;48.786;10.120;2023-07-29T06:48:59;4.38;;;3.72;;
11042;SDS011;5574;48.786;10.120;2023-07-29T06:51:25;4.40;;;3.63;;
11042;SDS011;5574;48.786;10.120;2023-07-29T06:53:54;5.28;;;3.85;;
11042;SDS011;5574;48.786;10.120;2023-07-29T06:56:21;6.93;;;4.20;;
11042;SDS011;5574;48.786;10.120;2023-07-29T06:58:47;4.80;;;3.17;;
11042;SDS011;5574;48.786;10.120;2023-07-29T07:01:14;3.28;;;3.00;;
11042;SDS011;5574;48.786;10.120;2023-07-29T07:03:41;3.63;;;3.33;;
11042;SDS011;5574;48.786;10.120;2023-07-29T07:06:09;8.50;;;3.15;;
11042;SDS011;5574;48.786;10.120;2023-07-29T07:08:35;17.63;;;4.43;;
11042;SDS011;5574;48.786;10.120;2023-07-29T07:11:02;3.22;;;2.53;;
11042;SDS011;5574;48.786;10.120;2023-07-29T07:13:29;3.10;;;2.58;;
11042;SDS011;5574;48.786;10.120;2023-07-29T07:15:56;3.65;;;3.00;;
11042;SDS011;5574;48.786;10.120;2023-07-29T07:18:23;2.67;;;2.47;;
11042;SDS011;5574;48.786;10.120;2023-07-29T07:20:49;5.32;;;4.82;;
11042;SDS011;5574;48.786;10.120;2023-07-29T07:23:18;4.00;;;2.88;;
11042;SDS011;5574;48.786;10.120;2023-07-29T07:25:45;3.08;;;2.78;;
11042;SDS011;5574;48.786;10.120;2023-07-29T07:28:11;3.25;;;2.92;;
11042;SDS011;5574;48.786;10.120;2023-07-29T07:30:39;4.20;;;2.78;;
11042;SDS011;5574;48.786;10.120;2023-07-29T07:33:07;5.10;;;2.85;;
11042;SDS011;5574;48.786;10.120;2023-07-29T07:35:33;4.47;;;2.67;;
11042;SDS011;5574;48.786;10.120;2023-07-29T07:38:00;3.20;;;2.53;;
11042;SDS011;5574;48.786;10.120;2023-07-29T07:40:30;2.05;;;1.85;;
11042;SDS011;5574;48.786;10.120;2023-07-29T07:42:57;3.08;;;2.30;;
11042;SDS011;5574;48.786;10.120;2023-07-29T07:45:23;2.70;;;2.35;;
11042;SDS011;5574;48.786;10.120;2023-07-29T07:47:51;2.22;;;2.00;;
11042;SDS011;5574;48.786;10.120;2023-07-29T07:50:18;2.72;;;2.40;;
11042;SDS011;5574;48.786;10.120;2023-07-29T07:52:44;2.65;;;2.25;;
11042;SDS011;5574;48.786;10.120;2023-07-29T07:55:11;2.67;;;2.22;;
11042;SDS011;5574;48.786;10.120;2023-07-29T07:57:39;3.20;;;2.40;;
11042;SDS011;5574;48.786;10.120;2023-07-29T08:00:06;5.35;;;2.75;;
11042;SDS011;5574;48.786;10.120;2023-07-29T08:02:34;3.90;;;2.70;;
11042;SDS011;5574;48.786;10.120;2023-07-29T08:05:01;4.13;;;2.67;;
11042;SDS011;5574;48.786;10.120;2023-07-29T08:07:28;5.78;;;2.90;;
11042;SDS011;5574;48.786;10.120;2023-07-29T08:09:54;3.30;;;3.00;;
11042;SDS011;5574;48.786;10.120;2023-07-29T08:12:21;3.22;;;2.05;;
11042;SDS011;5574;48.786;10.120;2023-07-29T08:14:49;2.78;;;2.20;;
11042;SDS011;5574;48.786;10.120;2023-07-29T08:17:16;3.67;;;2.13;;
11042;SDS011;5574;48.786;10.120;2023-07-29T08:19:42;2.72;;;1.95;;
11042;SDS011;5574;48.786;10.120;2023-07-29T08:22:09;2.70;;;2.10;;
11042;SDS011;5574;48.786;10.120;2023-07-29T08:24:36;2.45;;;2.25;;
11042;SDS011;5574;48.786;10.120;2023-07-29T08:27:03;4.15;;;2.75;;
11042;SDS011;5574;48.786;10.120;2023-07-29T08:29:29;2.58;;;1.80;;
11042;SDS011;5574;48.786;10.120;2023-07-29T08:31:57;1.50;;;1.40;;
11042;SDS011;5574;48.786;10.120;2023-07-29T08:34:24;1.77;;;1.60;;
11042;SDS011;5574;48.786;10.120;2023-07-29T08:36:51;1.27;;;1.17;;
11042;SDS011;5574;48.786;10.120;2023-07-29T08:39:17;1.20;;;0.82;;
11042;SDS011;5574;48.786;10.120;2023-07-29T08:41:45;2.35;;;0.93;;
11042;SDS011;5574;48.786;10.120;2023-07-29T08:44:20;0.82;;;0.82;;
11042;SDS011;5574;48.786;10.120;2023-07-29T08:46:48;0.90;;;0.90;;
11042;SDS011;5574;48.786;10.120;2023-07-29T08:49:16;1.10;;;1.00;;
11042;SDS011;5574;48.786;10.120;2023-07-29T08:51:45;1.60;;;1.40;;
11042;SDS011;5574;48.786;10.120;2023-07-29T08:54:14;0.85;;;0.85;;
11042;SDS011;5574;48.786;10.120;2023-07-29T08:56:41;2.15;;;0.80;;
11042;SDS011;5574;48.786;10.120;2023-07-29T08:59:08;1.02;;;0.93;;
11042;SDS011;5574;48.786;10.120;2023-07-29T09:01:36;1.63;;;0.98;;
11042;SDS011;5574;48.786;10.120;2023-07-29T09:04:04;1.08;;;0.90;;
11042;SDS011;5574;48.786;10.120;2023-07-29T09:06:32;0.80;;;0.80;;
11042;SDS011;5574;48.786;10.120;2023-07-29T09:09:00;0.75;;;0.65;;
11042;SDS011;5574;48.786;10.120;2023-07-29T09:11:28;0.80;;;0.80;;
11042;SDS011;5574;48.786;10.120;2023-07-29T09:13:54;1.83;;;0.80;;
11042;SDS011;5574;48.786;10.120;2023-07-29T09:16:21;0.93;;;0.93;;
11042;SDS011;5574;48.786;10.120;2023-07-29T09:18:48;1.17;;;1.08;;
11042;SDS011;5574;48.786;10.120;2023-07-29T09:21:15;0.80;;;0.80;;
11042;SDS011;5574;48.786;10.120;2023-07-29T09:23:44;1.38;;;0.88;;
11042;SDS011;5574;48.786;10.120;2023-07-29T09:26:11;1.40;;;0.90;;
11042;SDS011;5574;48.786;10.120;2023-07-29T09:28:38;1.92;;;1.10;;
11042;SDS011;5574;48.786;10.120;2023-07-29T09:31:06;1.33;;;1.23;;
11042;SDS011;5574;48.786;10.120;2023-07-29T09:33:33;1.10;;;1.00;;
11042;SDS011;5574;48.786;10.120;2023-07-29T09:36:01;1.05;;;1.05;;
11042;SDS011;5574;48.786;10.120;2023-07-29T09:38:29;1.35;;;1.23;;
11042;SDS011;5574;48.786;10.120;2023-07-29T09:40:57;1.13;;;1.08;;
11042;SDS011;5574;48.786;10.120;2023-07-29T09:43:29;1.35;;;1.25;;
11042;SDS011;5574;48.786;10.120;2023-07-29T09:45:59;1.52;;;1.40;;
11042;SDS011;5574;48.786;10.120;2023-07-29T09:48:27;1.10;;;1.10;;
11042;SDS011;5574;48.786;10.120;2023-07-29T09:50:54;1.95;;;1.35;;
11042;SDS011;5574;48.786;10.120;2023-07-29T09:53:21;1.55;;;1.45;;
11042;SDS011;5574;48.786;10.120;2023-07-29T09:55:48;1.58;;;1.48;;
11042;SDS011;5574;48.786;10.120;2023-07-29T09:58:18;1.40;;;1.30;;
11042;SDS011;5574;48.786;10.120;2023-07-29T10:00:51;1.77;;;1.55;;
11042;SDS011;5574;48.786;10.120;2023-07-29T10:03:18;1.60;;;1.50;;
11042;SDS011;5574;48.786;10.120;2023-07-29T10:05:46;1.60;;;1.50;;
11042;SDS011;5574;48.786;10.120;2023-07-29T10:08:13;1.17;;;1.10;;
11042;SDS011;5574;48.786;10.120;2023-07-29T10:10:40;2.17;;;1.58;;
11042;SDS011;5574;48.786;10.120;2023-07-29T10:13:08;1.73;;;1.55;;
11042;SDS011;5574;48.786;10.120;2023-07-29T10:15:37;1.80;;;1.70;;
11042;SDS011;5574;48.786;10.120;2023-07-29T10:18:04;1.58;;;1.38;;
11042;SDS011;5574;48.786;10.120;2023-07-29T10:20:32;2.03;;;1.58;;
11042;SDS011;5574;48.786;10.120;2023-07-29T10:23:00;2.42;;;1.73;;
11042;SDS011;5574;48.786;10.120;2023-07-29T10:25:30;1.60;;;1.50;;
11042;SDS011;5574;48.786;10.120;2023-07-29T10:28:04;1.45;;;1.35;;
11042;SDS011;5574;48.786;10.120;2023-07-29T10:30:32;1.73;;;1.60;;
11042;SDS011;5574;48.786;10.120;2023-07-29T10:33:01;1.60;;;1.50;;
11042;SDS011;5574;48.786;10.120;2023-07-29T10:35:29;1.80;;;1.70;;
11042;SDS011;5574;48.786;10.120;2023-07-29T10:37:58;1.70;;;1.60;;
11042;SDS011;5574;48.786;10.120;2023-07-29T10:40:26;1.60;;;1.50;;
11042;SDS011;5574;48.786;10.120;2023-07-29T10:43:09;1.60;;;1.50;;
11042;SDS011;5574;48.786;10.120;2023-07-29T10:45:37;1.90;;;1.80;;
11042;SDS011;5574;48.786;10.120;2023-07-29T10:48:07;1.77;;;1.67;;
11042;SDS011;5574;48.786;10.120;2023-07-29T10:50:36;3.20;;;1.52;;
11042;SDS011;5574;48.786;10.120;2023-07-29T10:53:03;1.58;;;1.48;;
11042;SDS011;5574;48.786;10.120;2023-07-29T10:55:32;2.00;;;1.80;;
11042;SDS011;5574;48.786;10.120;2023-07-29T10:58:07;2.03;;;1.80;;
11042;SDS011;5574;48.786;10.120;2023-07-29T11:00:35;1.52;;;1.40;;
11042;SDS011;5574;48.786;10.120;2023-07-29T11:03:02;1.85;;;1.70;;
11042;SDS011;5574;48.786;10.120;2023-07-29T11:08:30;1.50;;;1.40;;
11042;SDS011;5574;48.786;10.120;2023-07-29T11:11:00;2.90;;;2.03;;
11042;SDS011;5574;48.786;10.120;2023-07-29T11:13:27;2.20;;;1.80;;
11042;SDS011;5574;48.786;10.120;2023-07-29T11:15:54;2.25;;;1.80;;
11042;SDS011;5574;48.786;10.120;2023-07-29T11:18:23;2.22;;;1.88;;
11042;SDS011;5574;48.786;10.120;2023-07-29T11:20:53;2.10;;;2.00;;
11042;SDS011;5574;48.786;10.120;2023-07-29T11:23:28;1.83;;;1.73;;
11042;SDS011;5574;48.786;10.120;2023-07-29T11:25:56;2.50;;;1.83;;
11042;SDS011;5574;48.786;10.120;2023-07-29T11:28:23;1.95;;;1.65;;
11042;SDS011;5574;48.786;10.120;2023-07-29T11:30:50;2.45;;;1.88;;
11042;SDS011;5574;48.786;10.120;2023-07-29T11:33:17;1.83;;;1.30;;
11042;SDS011;5574;48.786;10.120;2023-07-29T11:35:45;1.23;;;0.77;;
11042;SDS011;5574;48.786;10.120;2023-07-29T11:38:14;0.75;;;0.57;;
11042;SDS011;5574;48.786;10.120;2023-07-29T11:40:43;2.58;;;0.82;;
11042;SDS011;5574;48.786;10.120;2023-07-29T11:43:19;3.30;;;1.00;;
11042;SDS011;5574;48.786;10.120;2023-07-29T11:45:45;1.65;;;0.90;;
11042;SDS011;5574;48.786;10.120;2023-07-29T11:48:12;2.53;;;1.40;;
11042;SDS011;5574;48.786;10.120;2023-07-29T11:50:39;1.90;;;0.90;;
11042;SDS011;5574;48.786;10.120;2023-07-29T11:53:06;1.15;;;0.75;;
11042;SDS011;5574;48.786;10.120;2023-07-29T11:55:33;1.05;;;0.73;;
11042;SDS011;5574;48.786;10.120;2023-07-29T11:58:01;1.63;;;0.93;;
11042;SDS011;5574;48.786;10.120;2023-07-29T12:00:28;0.68;;;0.45;;
11042;SDS011;5574;48.786;10.120;2023-07-29T12:02:55;0.60;;;0.60;;
11042;SDS011;5574;48.786;10.120;2023-07-29T12:05:22;0.90;;;0.82;;
11042;SDS011;5574;48.786;10.120;2023-07-29T12:07:49;0.90;;;0.75;;
11042;SDS011;5574;48.786;10.120;2023-07-29T12:10:16;1.27;;;1.17;;
11042;SDS011;5574;48.786;10.120;2023-07-29T12:12:44;1.27;;;1.17;;
11042;SDS011;5574;48.786;10.120;2023-07-29T12:15:13;1.00;;;1.00;;
11042;SDS011;5574;48.786;10.120;2023-07-29T12:17:40;0.90;;;0.85;;
11042;SDS011;5574;48.786;10.120;2023-07-29T12:20:08;2.30;;;0.98;;
11042;SDS011;5574;48.786;10.120;2023-07-29T12:22:35;1.25;;;1.00;;
11042;SDS011;5574;48.786;10.120;2023-07-29T12:25:02;1.50;;;1.40;;
11042;SDS011;5574;48.786;10.120;2023-07-29T12:27:30;1.13;;;1.10;;
11042;SDS011;5574;48.786;10.120;2023-07-29T12:29:57;1.20;;;1.15;;
11042;SDS011;5574;48.786;10.120;2023-07-29T12:32:26;1.63;;;1.50;;
11042;SDS011;5574;48.786;10.120;2023-07-29T12:34:53;1.20;;;1.10;;
11042;SDS011;5574;48.786;10.120;2023-07-29T12:37:20;1.23;;;1.23;;
11042;SDS011;5574;48.786;10.120;2023-07-29T12:39:57;1.40;;;1.30;;
11042;SDS011;5574;48.786;10.120;2023-07-29T12:42:24;1.60;;;1.27;;
11042;SDS011;5574;48.786;10.120;2023-07-29T12:44:51;1.73;;;1.60;;
11042;SDS011;5574;48.786;10.120;2023-07-29T12:47:17;1.35;;;1.17;;
11042;SDS011;5574;48.786;10.120;2023-07-29T12:49:45;1.13;;;1.13;;
11042;SDS011;5574;48.786;10.120;2023-07-29T12:52:12;1.40;;;1.30;;
11042;SDS011;5574;48.786;10.120;2023-07-29T12:54:39;1.17;;;1.05;;
11042;SDS011;5574;48.786;10.120;2023-07-29T12:57:09;1.58;;;1.48;;
11042;SDS011;5574;48.786;10.120;2023-07-29T12:59:35;1.83;;;1.40;;
11042;SDS011;5574;48.786;10.120;2023-07-29T13:02:02;2.40;;;1.45;;
11042;SDS011;5574;48.786;10.120;2023-07-29T13:04:29;1.50;;;1.40;;
11042;SDS011;5574;48.786;10.120;2023-07-29T13:06:57;1.50;;;1.40;;
11042;SDS011;5574;48.786;10.120;2023-07-29T13:09:24;1.55;;;1.45;;
11042;SDS011;5574;48.786;10.120;2023-07-29T13:11:51;1.60;;;1.50;;
11042;SDS011;5574;48.786;10.120;2023-07-29T13:14:17;2.05;;;1.38;;
11042;SDS011;5574;48.786;10.120;2023-07-29T13:16:44;1.48;;;1.38;;
11042;SDS011;5574;48.786;10.120;2023-07-29T13:19:11;1.58;;;1.48;;
11042;SDS011;5574;48.786;10.120;2023-07-29T13:21:37;3.30;;;1.70;;
11042;SDS011;5574;48.786;10.120;2023-07-29T13:24:05;1.80;;;1.70;;
11042;SDS011;5574;48.786;10.120;2023-07-29T13:26:32;1.60;;;1.50;;
11042;SDS011;5574;48.786;10.120;2023-07-29T13:28:59;2.17;;;1.60;;
11042;SDS011;5574;48.786;10.120;2023-07-29T13:31:25;2.00;;;1.80;;
11042;SDS011;5574;48.786;10.120;2023-07-29T13:33:52;2.00;;;1.45;;
11042;SDS011;5574;48.786;10.120;2023-07-29T13:36:19;2.00;;;1.90;;
11042;SDS011;5574;48.786;10.120;2023-07-29T13:38:45;2.20;;;1.70;;
11042;SDS011;5574;48.786;10.120;2023-07-29T13:41:13;1.88;;;1.77;;
11042;SDS011;5574;48.786;10.120;2023-07-29T13:43:40;1.70;;;1.60;;
11042;SDS011;5574;48.786;10.120;2023-07-29T13:46:07;2.03;;;1.70;;
11042;SDS011;5574;48.786;10.120;2023-07-29T13:48:33;1.80;;;1.70;;
11042;SDS011;5574;48.786;10.120;2023-07-29T13:51:00;3.90;;;1.95;;
11042;SDS011;5574;48.786;10.120;2023-07-29T13:53:27;1.77;;;1.67;;
11042;SDS011;5574;48.786;10.120;2023-07-29T13:55:54;1.73;;;1.63;;
11042;SDS011;5574;48.786;10.120;2023-07-29T13:58:22;1.83;;;1.58;;
11042;SDS011;5574;48.786;10.120;2023-07-29T14:00:48;1.77;;;1.67;;
11042;SDS011;5574;48.786;10.120;2023-07-29T14:03:15;1.58;;;1.48;;
11042;SDS011;5574;48.786;10.120;2023-07-29T14:05:42;2.38;;;1.92;;
11042;SDS011;5574;48.786;10.120;2023-07-29T14:08:08;1.98;;;1.75;;
11042;SDS011;5574;48.786;10.120;2023-07-29T14:10:35;2.10;;;1.90;;
11042;SDS011;5574;48.786;10.120;2023-07-29T14:13:02;2.35;;;1.83;;
11042;SDS011;5574;48.786;10.120;2023-07-29T14:15:30;1.80;;;1.70;;
11042;SDS011;5574;48.786;10.120;2023-07-29T14:17:57;2.70;;;2.00;;
11042;SDS011;5574;48.786;10.120;2023-07-29T14:20:24;3.85;;;2.10;;
11042;SDS011;5574;48.786;10.120;2023-07-29T14:22:51;2.63;;;1.88;;
11042;SDS011;5574;48.786;10.120;2023-07-29T14:25:17;2.00;;;1.85;;
11042;SDS011;5574;48.786;10.120;2023-07-29T14:27:44;2.08;;;1.85;;
11042;SDS011;5574;48.786;10.120;2023-07-29T14:30:11;1.90;;;1.80;;
11042;SDS011;5574;48.786;10.120;2023-07-29T14:32:39;2.00;;;1.90;;
11042;SDS011;5574;48.786;10.120;2023-07-29T14:35:06;1.90;;;1.80;;
11042;SDS011;5574;48.786;10.120;2023-07-29T14:37:33;1.92;;;1.83;;
11042;SDS011;5574;48.786;10.120;2023-07-29T14:40:00;3.38;;;1.90;;
11042;SDS011;5574;48.786;10.120;2023-07-29T14:42:27;2.03;;;1.88;;
11042;SDS011;5574;48.786;10.120;2023-07-29T14:44:54;2.55;;;1.92;;
11042;SDS011;5574;48.786;10.120;2023-07-29T14:47:21;1.73;;;1.63;;
11042;SDS011;5574;48.786;10.120;2023-07-29T14:49:49;2.10;;;1.90;;
11042;SDS011;5574;48.786;10.120;2023-07-29T14:52:16;1.90;;;1.67;;